Time;durP1;ratioP1;P1;durP2;ratioP2;P2;SDS_P1;SDS_P2;PMS_P1;PMS_P2;Temp;Humidity;BMP_temperature;BMP_pressure;BME280_temperature;BME280_humidity;BME280_pressure;Samples;Min_cycle;Max_cycle;Signal;HPM_P1;HPM_P2
2022/04/05 00:01:34;;;;;;;;;;;21.30;46.40;;;;;;5080379;28;980;-34
2022/04/05 00:04:01;;;;;;;;;;;21.30;46.40;;;;;;5080739;28;1906;-35
2022/04/05 00:06:28;;;;;;;;;;;21.30;46.40;;;;;;5079378;28;1051;-36
2022/04/05 00:08:54;;;;;;;;;;;21.30;46.40;;;;;;5079798;28;932;-35
2022/04/05 00:11:21;;;;;;;;;;;21.40;46.40;;;;;;5079131;28;972;-35
2022/04/05 00:13:50;;;;;;;;;;;21.40;46.40;;;;;;5079326;28;1031;-35
2022/04/05 00:16:16;;;;;;;;;;;21.40;46.40;;;;;;5079835;28;1006;-35
2022/04/05 00:18:43;;;;;;;;;;;21.40;46.30;;;;;;5080279;28;1210;-35
2022/04/05 00:21:10;;;;;;;;;;;21.40;46.30;;;;;;5080537;28;937;-35
2022/04/05 00:23:36;;;;;;;;;;;21.40;46.30;;;;;;5079536;28;1906;-35
2022/04/05 00:26:03;;;;;;;;;;;21.40;46.30;;;;;;5078738;28;936;-35
2022/04/05 00:28:30;;;;;;;;;;;21.40;46.30;;;;;;5079935;28;932;-35
2022/04/05 00:30:58;;;;;;;;;;;21.40;46.30;;;;;;5079251;28;1012;-35
2022/04/05 00:33:25;;;;;;;;;;;21.40;46.30;;;;;;5079571;28;1040;-35
2022/04/05 00:35:52;;;;;;;;;;;21.40;46.40;;;;;;5079745;28;956;-35
2022/04/05 00:38:19;;;;;;;;;;;21.30;46.20;;;;;;5080863;28;940;-36
2022/04/05 00:40:45;;;;;;;;;;;21.40;46.40;;;;;;5079036;28;961;-35
2022/04/05 00:43:12;;;;;;;;;;;21.40;46.40;;;;;;5079821;28;1148;-35
2022/04/05 00:45:39;;;;;;;;;;;21.40;46.40;;;;;;5079743;28;1905;-35
2022/04/05 00:48:07;;;;;;;;;;;21.30;46.40;;;;;;5079167;28;977;-35
2022/04/05 00:50:36;;;;;;;;;;;21.40;46.40;;;;;;5079523;28;929;-36
2022/04/05 00:53:05;;;;;;;;;;;21.30;46.40;;;;;;5080339;28;988;-35
2022/04/05 00:55:32;;;;;;;;;;;21.30;46.50;;;;;;5079875;28;944;-35
2022/04/05 00:58:01;;;;;;;;;;;21.30;46.60;;;;;;5078209;28;995;-35
2022/04/05 01:00:28;;;;;;;;;;;21.30;46.50;;;;;;5079758;28;944;-35
2022/04/05 01:02:55;;;;;;;;;;;21.30;46.50;;;;;;5079284;28;957;-35
2022/04/05 01:05:25;;;;;;;;;;;21.30;46.50;;;;;;5079166;28;1898;-35
2022/04/05 01:07:52;;;;;;;;;;;21.30;46.50;;;;;;5079453;28;952;-35
2022/04/05 01:10:20;;;;;;;;;;;21.30;46.60;;;;;;5079049;28;1027;-33
2022/04/05 01:12:48;;;;;;;;;;;21.30;46.70;;;;;;5078581;28;973;-33
2022/04/05 01:15:15;;;;;;;;;;;21.30;46.70;;;;;;5078908;28;920;-33
2022/04/05 01:17:42;;;;;;;;;;;21.20;46.60;;;;;;5079429;28;996;-33
2022/04/05 01:20:09;;;;;;;;;;;21.20;46.70;;;;;;5079044;28;965;-33
2022/04/05 01:22:45;;;;;;;;;;;21.20;46.50;;;;;;5079008;28;1027;-33
2022/04/05 01:25:14;;;;;;;;;;;21.30;46.50;;;;;;5079126;28;1910;-33
2022/04/05 01:27:41;;;;;;;;;;;21.30;46.60;;;;;;5079005;28;987;-33
2022/04/05 01:30:09;;;;;;;;;;;21.30;46.50;;;;;;5079129;28;1095;-34
2022/04/05 01:32:35;;;;;;;;;;;21.30;46.60;;;;;;5079052;28;972;-33
2022/04/05 01:35:02;;;;;;;;;;;21.30;46.60;;;;;;5078917;28;992;-33
2022/04/05 01:37:30;;;;;;;;;;;21.30;46.50;;;;;;5079002;28;991;-33
2022/04/05 01:39:57;;;;;;;;;;;21.30;46.40;;;;;;5078937;28;963;-33
2022/04/05 01:42:25;;;;;;;;;;;21.30;46.50;;;;;;5078683;28;968;-34
2022/04/05 01:44:52;;;;;;;;;;;21.30;46.40;;;;;;5078446;28;1910;-33
2022/04/05 01:47:19;;;;;;;;;;;21.30;46.50;;;;;;5078341;28;936;-33
2022/04/05 01:49:48;;;;;;;;;;;21.30;46.40;;;;;;5078338;28;1203;-32
2022/04/05 01:52:16;;;;;;;;;;;21.30;46.50;;;;;;5078307;28;897;-33
2022/04/05 01:54:42;;;;;;;;;;;21.30;46.60;;;;;;5078428;28;1024;-33
2022/04/05 01:57:09;;;;;;;;;;;21.30;46.60;;;;;;5078832;28;991;-33
2022/04/05 01:59:38;;;;;;;;;;;21.30;46.50;;;;;;5078544;28;928;-33
2022/04/05 02:02:05;;;;;;;;;;;21.30;46.60;;;;;;5078784;28;947;-33
2022/04/05 02:04:32;;;;;;;;;;;21.20;46.60;;;;;;5078568;28;1977;-33
2022/04/05 02:06:59;;;;;;;;;;;21.30;46.50;;;;;;5078641;28;937;-33
2022/04/05 02:09:26;;;;;;;;;;;21.30;46.70;;;;;;5078009;28;984;-33
2022/04/05 02:11:53;;;;;;;;;;;21.20;46.70;;;;;;5077547;28;941;-33
2022/04/05 02:14:20;;;;;;;;;;;21.20;46.70;;;;;;5078521;28;1042;-33
2022/04/05 02:16:48;;;;;;;;;;;21.20;46.70;;;;;;5078294;28;1015;-33
2022/04/05 02:19:15;;;;;;;;;;;21.10;46.90;;;;;;5077944;28;1019;-33
2022/04/05 02:21:42;;;;;;;;;;;21.10;46.90;;;;;;5077551;28;977;-33
2022/04/05 02:24:09;;;;;;;;;;;21.10;46.80;;;;;;5077941;28;1914;-33
2022/04/05 02:26:35;;;;;;;;;;;21.20;46.80;;;;;;5078085;28;977;-33
2022/04/05 02:29:02;;;;;;;;;;;21.10;46.90;;;;;;5078543;28;976;-33
2022/04/05 02:34:33;;;;;;;;;;;21.10;47.10;;;;;;5077331;28;908;-33
2022/04/05 02:37:00;;;;;;;;;;;21.10;47.10;;;;;;5077978;28;972;-32
2022/04/05 02:39:27;;;;;;;;;;;21.10;47.10;;;;;;5077462;28;1030;-34
2022/04/05 02:41:54;;;;;;;;;;;21.10;47.00;;;;;;5077545;28;1004;-33
2022/04/05 02:44:20;;;;;;;;;;;21.10;47.00;;;;;;5077720;28;1906;-33
2022/04/05 02:46:47;;;;;;;;;;;21.20;46.80;;;;;;5078661;28;996;-33
2022/04/05 02:49:14;;;;;;;;;;;21.20;46.80;;;;;;5078816;28;1890;-35
2022/04/05 02:51:42;;;;;;;;;;;21.20;46.70;;;;;;5077727;28;976;-36
2022/04/05 02:54:09;;;;;;;;;;;21.20;46.70;;;;;;5077977;28;1031;-35
2022/04/05 02:56:35;;;;;;;;;;;21.20;46.70;;;;;;5077141;28;965;-35
2022/04/05 02:59:03;;;;;;;;;;;21.20;46.70;;;;;;5077689;28;988;-35
2022/04/05 03:01:29;;;;;;;;;;;21.20;46.80;;;;;;5078219;28;1147;-35
2022/04/05 03:03:56;;;;;;;;;;;21.10;46.80;;;;;;5077717;28;1029;-35
2022/04/05 03:06:23;;;;;;;;;;;21.10;46.80;;;;;;5077621;28;1976;-36
2022/04/05 03:08:56;;;;;;;;;;;21.20;46.90;;;;;;5077009;28;830;-35
2022/04/05 03:11:22;;;;;;;;;;;21.20;46.80;;;;;;5077329;28;966;-35
2022/04/05 03:13:49;;;;;;;;;;;21.10;47.00;;;;;;5077209;28;1781;-36
2022/04/05 03:16:16;;;;;;;;;;;21.10;47.00;;;;;;5077340;28;1009;-35
2022/04/05 03:18:45;;;;;;;;;;;21.10;47.10;;;;;;5078152;28;932;-35
2022/04/05 03:21:12;;;;;;;;;;;21.10;47.10;;;;;;5078690;28;992;-36
2022/04/05 03:23:40;;;;;;;;;;;21.10;47.20;;;;;;5081488;28;1019;-35
2022/04/05 03:26:08;;;;;;;;;;;21.00;47.10;;;;;;5082012;28;1906;-35
2022/04/05 03:28:34;;;;;;;;;;;21.00;47.20;;;;;;5081089;28;1014;-35
2022/04/05 03:31:01;;;;;;;;;;;21.00;47.20;;;;;;5081052;28;980;-36
2022/04/05 03:33:29;;;;;;;;;;;21.00;47.20;;;;;;5081299;28;937;-35
2022/04/05 03:35:56;;;;;;;;;;;21.00;47.20;;;;;;5081531;28;937;-35
2022/04/05 03:38:23;;;;;;;;;;;21.00;47.30;;;;;;5080821;28;1040;-35
2022/04/05 03:40:49;;;;;;;;;;;21.00;47.40;;;;;;5081380;28;965;-35
2022/04/05 03:43:18;;;;;;;;;;;20.90;47.30;;;;;;5080389;28;1222;-35
2022/04/05 03:45:44;;;;;;;;;;;21.00;47.40;;;;;;5080448;28;1984;-35
2022/04/05 03:48:11;;;;;;;;;;;21.00;47.30;;;;;;5080164;28;936;-35
2022/04/05 03:50:38;;;;;;;;;;;21.00;47.40;;;;;;5080596;28;869;-35
2022/04/05 03:53:04;;;;;;;;;;;21.00;47.50;;;;;;5080382;28;963;-35
2022/04/05 03:55:31;;;;;;;;;;;20.90;47.40;;;;;;5080476;28;972;-34
2022/04/05 03:57:58;;;;;;;;;;;20.90;47.40;;;;;;5079502;28;995;-35
2022/04/05 04:00:26;;;;;;;;;;;20.90;47.40;;;;;;5080341;28;985;-35
2022/04/05 04:02:53;;;;;;;;;;;20.90;47.40;;;;;;5079540;28;1043;-35
2022/04/05 04:05:20;;;;;;;;;;;21.00;47.30;;;;;;5080611;28;1898;-35
2022/04/05 04:07:48;;;;;;;;;;;20.90;47.40;;;;;;5079913;28;1003;-35
2022/04/05 04:10:15;;;;;;;;;;;20.90;47.40;;;;;;5080178;28;940;-35
2022/04/05 04:12:42;;;;;;;;;;;21.00;47.30;;;;;;5078876;28;1008;-35
2022/04/05 04:15:09;;;;;;;;;;;21.00;47.40;;;;;;5078929;28;1036;-34
2022/04/05 04:17:37;;;;;;;;;;;21.00;47.40;;;;;;5080246;28;976;-35
2022/04/05 04:20:05;;;;;;;;;;;21.00;47.40;;;;;;5080123;28;980;-34
2022/04/05 04:22:31;;;;;;;;;;;21.00;47.40;;;;;;5080474;28;1105;-35
2022/04/05 04:24:58;;;;;;;;;;;21.00;47.40;;;;;;5079706;28;1983;-36
2022/04/05 04:27:25;;;;;;;;;;;20.90;47.40;;;;;;5079830;28;969;-35
2022/04/05 04:29:52;;;;;;;;;;;20.90;47.40;;;;;;5080617;28;1015;-35
2022/04/05 04:32:19;;;;;;;;;;;20.90;47.50;;;;;;5079451;28;981;-35
2022/04/05 04:34:47;;;;;;;;;;;20.90;47.40;;;;;;5078999;28;980;-37
2022/04/05 04:37:14;;;;;;;;;;;21.00;47.40;;;;;;5079341;28;956;-35
2022/04/05 04:39:41;;;;;;;;;;;21.00;47.40;;;;;;5079365;28;939;-35
2022/04/05 04:42:07;;;;;;;;;;;21.00;47.20;;;;;;5078640;28;937;-35
2022/04/05 04:44:34;;;;;;;;;;;21.00;47.30;;;;;;5078406;28;1124;-35
2022/04/05 04:47:01;;;;;;;;;;;21.00;47.20;;;;;;5078398;28;1977;-35
2022/04/05 04:49:28;;;;;;;;;;;21.10;47.10;;;;;;5078107;28;1015;-35
2022/04/05 04:51:56;;;;;;;;;;;21.20;47.10;;;;;;5078040;28;921;-35
2022/04/05 04:54:22;;;;;;;;;;;21.30;46.90;;;;;;5077319;28;996;-35
2022/04/05 04:56:49;;;;;;;;;;;21.30;46.70;;;;;;5077986;28;1013;-35
2022/04/05 04:59:16;;;;;;;;;;;21.40;46.60;;;;;;5077537;28;1039;-35
2022/04/05 05:01:42;;;;;;;;;;;21.40;46.60;;;;;;5077670;28;878;-35
2022/04/05 05:04:09;;;;;;;;;;;21.30;46.70;;;;;;5077755;28;977;-35
2022/04/05 05:06:36;;;;;;;;;;;21.30;46.90;;;;;;5075864;28;1984;-35
2022/04/05 05:09:04;;;;;;;;;;;21.30;47.00;;;;;;5076324;28;865;-35
2022/04/05 05:11:30;;;;;;;;;;;21.40;47.00;;;;;;5077432;28;1023;-35
2022/04/05 05:13:57;;;;;;;;;;;21.40;47.00;;;;;;5077288;28;937;-35
2022/04/05 05:16:24;;;;;;;;;;;21.40;46.80;;;;;;5077019;28;1095;-35
2022/04/05 05:18:51;;;;;;;;;;;21.40;46.70;;;;;;5076721;28;950;-35
2022/04/05 05:21:19;;;;;;;;;;;21.50;46.70;;;;;;5075393;28;1016;-35
2022/04/05 05:23:46;;;;;;;;;;;21.50;46.60;;;;;;5075742;28;989;-35
2022/04/05 05:26:14;;;;;;;;;;;21.50;46.70;;;;;;5076010;28;1926;-35
2022/04/05 05:28:41;;;;;;;;;;;21.50;46.70;;;;;;5074208;28;920;-35
2022/04/05 05:31:08;;;;;;;;;;;21.50;46.60;;;;;;5073426;28;1058;-35
2022/04/05 05:33:35;;;;;;;;;;;21.50;46.60;;;;;;5074836;28;1051;-35
2022/04/05 05:36:02;;;;;;;;;;;21.50;46.60;;;;;;5075288;28;953;-35
2022/04/05 05:38:29;;;;;;;;;;;21.50;47.70;;;;;;5075026;28;1008;-35
2022/04/05 05:40:55;;;;;;;;;;;21.50;46.60;;;;;;5075807;28;988;-35
2022/04/05 05:43:24;;;;;;;;;;;21.50;46.70;;;;;;5075662;28;1163;-35
2022/04/05 05:45:51;;;;;;;;;;;21.50;46.50;;;;;;5076636;28;1973;-35
2022/04/05 05:48:18;;;;;;;;;;;21.50;46.60;;;;;;5076149;28;936;-36
2022/04/05 05:50:45;;;;;;;;;;;21.50;46.70;;;;;;5076578;28;941;-35
2022/04/05 05:53:12;;;;;;;;;;;21.60;46.60;;;;;;5076077;28;919;-35
2022/04/05 05:55:40;;;;;;;;;;;21.60;46.70;;;;;;5076186;28;959;-35
2022/04/05 05:58:06;;;;;;;;;;;21.60;46.60;;;;;;5074704;28;1010;-35
2022/04/05 06:00:35;;;;;;;;;;;21.60;46.70;;;;;;5076443;28;1016;-35
2022/04/05 06:03:03;;;;;;;;;;;21.50;46.80;;;;;;5076396;28;992;-35
2022/04/05 06:05:31;;;;;;;;;;;21.50;46.80;;;;;;5075661;28;1906;-35
2022/04/05 06:07:58;;;;;;;;;;;21.50;46.90;;;;;;5076119;28;920;-33
2022/04/05 06:10:24;;;;;;;;;;;21.50;46.80;;;;;;5075888;28;885;-35
2022/04/05 06:12:52;;;;;;;;;;;21.60;46.80;;;;;;5076028;28;996;-35
2022/04/05 06:15:19;;;;;;;;;;;21.50;46.80;;;;;;5076144;28;1039;-35
2022/04/05 06:17:48;;;;;;;;;;;21.50;46.90;;;;;;5075156;28;1060;-35
2022/04/05 06:20:16;;;;;;;;;;;21.50;47.40;;;;;;5075310;28;1034;-35
2022/04/05 06:22:44;;;;;;;;;;;21.50;47.00;;;;;;5076161;28;984;-35
2022/04/05 06:25:11;;;;;;;;;;;21.50;46.90;;;;;;5075691;28;980;-37
2022/04/05 06:27:38;;;;;;;;;;;21.70;47.20;;;;;;5076210;28;1973;-37
2022/04/05 06:30:06;;;;;;;;;;;21.60;47.10;;;;;;5075210;28;947;-37
2022/04/05 06:32:32;;;;;;;;;;;21.50;46.90;;;;;;5076118;28;973;-37
2022/04/05 06:35:00;;;;;;;;;;;21.50;47.00;;;;;;5076022;28;1011;-38
2022/04/05 06:37:27;;;;;;;;;;;21.60;47.10;;;;;;5075888;28;1094;-33
2022/04/05 06:39:54;;;;;;;;;;;21.60;47.50;;;;;;5076202;28;1022;-35
2022/04/05 06:42:21;;;;;;;;;;;21.70;47.40;;;;;;5074720;28;1018;-36
2022/04/05 06:44:48;;;;;;;;;;;21.60;47.20;;;;;;5074856;28;1229;-35
2022/04/05 06:47:15;;;;;;;;;;;21.60;47.30;;;;;;5074381;28;1906;-35
2022/04/05 06:49:42;;;;;;;;;;;21.50;47.30;;;;;;5075993;28;994;-36
2022/04/05 06:52:10;;;;;;;;;;;21.50;47.40;;;;;;5075785;28;1008;-35
2022/04/05 06:54:37;;;;;;;;;;;21.50;47.40;;;;;;5075284;28;991;-35
2022/04/05 06:57:04;;;;;;;;;;;21.50;47.60;;;;;;5078317;28;1024;-36
2022/04/05 06:59:31;;;;;;;;;;;21.50;47.70;;;;;;5077739;28;1004;-36
2022/04/05 07:01:58;;;;;;;;;;;21.40;47.60;;;;;;5078768;28;964;-35
2022/04/05 07:04:24;;;;;;;;;;;21.40;47.70;;;;;;5078763;28;1006;-36
2022/04/05 07:06:51;;;;;;;;;;;21.40;47.70;;;;;;5078790;28;1979;-36
2022/04/05 07:09:19;;;;;;;;;;;21.30;47.70;;;;;;5079227;28;2203;-36
2022/04/05 07:11:46;;;;;;;;;;;21.30;47.90;;;;;;5078881;28;956;-35
2022/04/05 07:14:12;;;;;;;;;;;21.30;47.70;;;;;;5078163;28;1408;-35
2022/04/05 07:16:39;;;;;;;;;;;21.30;47.90;;;;;;5077796;28;948;-36
2022/04/05 07:19:06;;;;;;;;;;;21.30;47.80;;;;;;5077183;28;928;-35
2022/04/05 07:21:33;;;;;;;;;;;21.30;47.80;;;;;;5075565;28;985;-36
2022/04/05 07:24:00;;;;;;;;;;;21.30;48.10;;;;;;5076991;28;967;-36
2022/04/05 07:26:28;;;;;;;;;;;21.30;47.90;;;;;;5077300;28;1906;-35
2022/04/05 07:28:54;;;;;;;;;;;21.30;47.60;;;;;;5077053;28;987;-37
2022/04/05 07:31:21;;;;;;;;;;;21.30;47.80;;;;;;5076749;28;1019;-35
2022/04/05 07:33:48;;;;;;;;;;;21.40;47.80;;;;;;5077303;28;936;-36
2022/04/05 07:36:15;;;;;;;;;;;21.30;47.70;;;;;;5077832;28;1831;-35
2022/04/05 07:38:42;;;;;;;;;;;21.30;47.80;;;;;;5078556;28;1003;-35
2022/04/05 07:41:08;;;;;;;;;;;21.40;47.70;;;;;;5077801;28;1016;-35
2022/04/05 07:43:36;;;;;;;;;;;21.50;47.60;;;;;;5078154;28;1024;-35
2022/04/05 07:46:04;;;;;;;;;;;21.40;47.70;;;;;;5078303;28;1914;-36
2022/04/05 07:48:31;;;;;;;;;;;21.40;47.70;;;;;;5077251;28;1863;-35
2022/04/05 07:51:00;;;;;;;;;;;21.40;47.70;;;;;;5075847;28;1037;-36
2022/04/05 07:53:26;;;;;;;;;;;21.30;47.90;;;;;;5077276;28;1004;-36
2022/04/05 07:55:54;;;;;;;;;;;21.40;47.70;;;;;;5077354;28;953;-35
2022/04/05 07:58:21;;;;;;;;;;;21.40;47.70;;;;;;5076696;28;951;-35
2022/04/05 08:00:49;;;;;;;;;;;21.40;47.70;;;;;;5075805;28;1022;-35
2022/04/05 08:03:17;;;;;;;;;;;21.40;47.70;;;;;;5076847;28;925;-36
2022/04/05 08:05:44;;;;;;;;;;;21.40;47.70;;;;;;5077984;28;1022;-35
2022/04/05 08:08:11;;;;;;;;;;;21.40;47.60;;;;;;5077052;28;1984;-35
2022/04/05 08:10:37;;;;;;;;;;;21.30;47.90;;;;;;5077423;28;985;-36
2022/04/05 08:13:04;;;;;;;;;;;21.30;47.80;;;;;;5076869;28;928;-36
2022/04/05 08:15:31;;;;;;;;;;;21.30;47.90;;;;;;5076487;28;916;-36
2022/04/05 08:17:59;;;;;;;;;;;21.30;47.80;;;;;;5077459;28;870;-35
2022/04/05 08:20:26;;;;;;;;;;;21.30;47.80;;;;;;5078366;28;935;-35
2022/04/05 08:22:53;;;;;;;;;;;21.30;47.90;;;;;;5077971;28;1073;-35
2022/04/05 08:25:21;;;;;;;;;;;21.30;48.00;;;;;;5079016;28;928;-35
2022/04/05 08:27:48;;;;;;;;;;;21.40;47.90;;;;;;5077136;28;1906;-35
2022/04/05 08:30:17;;;;;;;;;;;21.30;47.80;;;;;;5076047;28;1003;-36
2022/04/05 08:32:44;;;;;;;;;;;21.30;47.80;;;;;;5077371;28;1011;-37
2022/04/05 08:35:14;;;;;;;;;;;21.30;47.80;;;;;;5076984;28;1783;-36
2022/04/05 08:37:41;;;;;;;;;;;21.30;47.90;;;;;;5077795;28;968;-36
2022/04/05 08:40:08;;;;;;;;;;;21.40;47.80;;;;;;5077564;28;984;-35
2022/04/05 08:42:35;;;;;;;;;;;21.30;47.70;;;;;;5077677;28;912;-35
2022/04/05 08:45:02;;;;;;;;;;;21.30;47.70;;;;;;5077922;28;1031;-35
2022/04/05 08:47:29;;;;;;;;;;;21.30;47.70;;;;;;5075979;28;1902;-35
2022/04/05 08:49:56;;;;;;;;;;;21.40;47.70;;;;;;5076826;28;977;-36
2022/04/05 08:52:24;;;;;;;;;;;21.40;47.80;;;;;;5077202;28;983;-36
2022/04/05 08:54:51;;;;;;;;;;;21.40;47.70;;;;;;5078068;28;995;-35
2022/04/05 08:57:17;;;;;;;;;;;21.40;47.70;;;;;;5076693;28;638;-35
2022/04/05 08:59:44;;;;;;;;;;;21.40;47.70;;;;;;5073721;28;1213;-36
2022/04/05 09:02:11;;;;;;;;;;;21.30;47.90;;;;;;5076310;28;956;-36
2022/04/05 09:04:39;;;;;;;;;;;21.30;47.90;;;;;;5075715;28;982;-35
2022/04/05 09:07:19;;;;;;;;;;;21.30;48.00;;;;;;5076250;28;1893;-35
2022/04/05 09:09:47;;;;;;;;;;;21.30;47.90;;;;;;5075876;28;974;-35
2022/04/05 09:12:16;;;;;;;;;;;21.30;47.80;;;;;;5074622;28;833;-35
2022/04/05 09:14:43;;;;;;;;;;;21.30;47.80;;;;;;5073896;28;944;-36
2022/04/05 09:17:12;;;;;;;;;;;21.30;47.90;;;;;;5075129;28;1030;-36
2022/04/05 09:19:41;;;;;;;;;;;21.30;47.80;;;;;;5074220;28;1014;-35
2022/04/05 09:22:08;;;;;;;;;;;21.30;47.90;;;;;;5075336;28;999;-36
2022/04/05 09:24:35;;;;;;;;;;;21.30;47.90;;;;;;5075398;28;1000;-35
2022/04/05 09:27:04;;;;;;;;;;;21.30;47.70;;;;;;5074816;28;1963;-35
2022/04/05 09:29:40;;;;;;;;;;;21.30;47.90;;;;;;5075382;28;992;-35
2022/04/05 09:32:07;;;;;;;;;;;21.40;47.70;;;;;;5075574;28;999;-36
2022/04/05 09:34:34;;;;;;;;;;;21.30;47.80;;;;;;5075995;28;959;-36
2022/04/05 09:37:07;;;;;;;;;;;21.30;47.80;;;;;;5075798;28;873;-35
2022/04/05 09:39:34;;;;;;;;;;;21.30;48.00;;;;;;5076108;28;956;-37
2022/04/05 09:42:02;;;;;;;;;;;21.30;48.10;;;;;;5076406;28;1011;-35
2022/04/05 09:44:32;;;;;;;;;;;21.30;47.90;;;;;;5075875;28;1087;-36
2022/04/05 09:47:03;;;;;;;;;;;21.30;47.80;;;;;;5075559;28;1984;-35
2022/04/05 09:49:34;;;;;;;;;;;21.30;47.90;;;;;;5075924;28;917;-36
2022/04/05 09:52:01;;;;;;;;;;;21.30;47.90;;;;;;5076333;28;948;-36
2022/04/05 09:54:29;;;;;;;;;;;21.30;48.00;;;;;;5074152;28;990;-36
2022/04/05 09:56:59;;;;;;;;;;;21.30;47.90;;;;;;5073085;28;1034;-36
2022/04/05 09:59:26;;;;;;;;;;;21.30;47.80;;;;;;5074247;28;980;-39
2022/04/05 10:02:07;;;;;;;;;;;21.30;47.90;;;;;;5074084;28;1298;-36
2022/04/05 10:04:35;;;;;;;;;;;21.30;48.00;;;;;;5074498;28;870;-36
2022/04/05 10:07:03;;;;;;;;;;;21.30;48.00;;;;;;5074588;28;1917;-35
2022/04/05 10:09:29;;;;;;;;;;;21.30;47.90;;;;;;5074538;28;952;-36
2022/04/05 10:11:58;;;;;;;;;;;21.30;47.80;;;;;;5075789;28;983;-36
2022/04/05 10:14:26;;;;;;;;;;;21.30;47.80;;;;;;5075555;28;924;-36
2022/04/05 10:16:54;;;;;;;;;;;21.30;47.80;;;;;;5076290;28;1039;-36
2022/04/05 10:19:22;;;;;;;;;;;21.30;47.70;;;;;;5075692;28;976;-36
2022/04/05 10:21:49;;;;;;;;;;;21.30;47.80;;;;;;5075239;28;991;-36
2022/04/05 10:24:16;;;;;;;;;;;21.30;47.60;;;;;;5074476;28;898;-36
2022/04/05 10:26:45;;;;;;;;;;;21.30;47.80;;;;;;5075225;28;1902;-36
2022/04/05 10:29:15;;;;;;;;;;;21.30;47.80;;;;;;5075439;28;996;-36
2022/04/05 10:31:45;;;;;;;;;;;21.30;47.70;;;;;;5075891;28;956;-36
2022/04/05 10:34:19;;;;;;;;;;;21.30;48.00;;;;;;5075857;28;939;-36
2022/04/05 10:37:08;;;;;;;;;;;21.30;49.00;;;;;;5072003;28;897;-36
2022/04/05 10:39:35;;;;;;;;;;;21.40;47.90;;;;;;5072731;28;948;-35
2022/04/05 10:42:20;;;;;;;;;;;21.40;47.70;;;;;;5071651;28;885;-36
2022/04/05 10:44:48;;;;;;;;;;;21.40;47.70;;;;;;5070958;28;1018;-36
2022/04/05 10:47:15;;;;;;;;;;;21.30;47.60;;;;;;5071958;28;1977;-36
2022/04/05 10:49:44;;;;;;;;;;;21.30;47.60;;;;;;5068944;28;881;-35
2022/04/05 10:52:15;;;;;;;;;;;21.30;47.70;;;;;;5066674;28;1031;-36
2022/04/05 10:54:43;;;;;;;;;;;21.30;47.70;;;;;;5068047;28;944;-36
2022/04/05 10:57:26;;;;;;;;;;;21.30;47.80;;;;;;5070384;28;969;-38
2022/04/05 10:59:57;;;;;;;;;;;21.20;47.90;;;;;;5071213;28;981;-36
2022/04/05 11:02:32;;;;;;;;;;;21.20;47.90;;;;;;5071455;28;1780;-36
2022/04/05 11:05:04;;;;;;;;;;;21.20;47.90;;;;;;5071998;28;1144;-36
2022/04/05 11:07:46;;;;;;;;;;;21.20;47.80;;;;;;5070853;28;1921;-36
2022/04/05 11:10:15;;;;;;;;;;;21.20;48.00;;;;;;5071751;28;1175;-36
2022/04/05 11:12:43;;;;;;;;;;;21.20;48.10;;;;;;5073247;28;984;-37
2022/04/05 11:15:11;;;;;;;;;;;21.20;48.00;;;;;;5073742;28;1054;-37
2022/04/05 11:17:38;;;;;;;;;;;21.10;48.20;;;;;;5073937;28;955;-35
2022/04/05 11:20:05;;;;;;;;;;;21.20;47.90;;;;;;5073688;28;1002;-37
2022/04/05 11:22:34;;;;;;;;;;;21.20;48.00;;;;;;5072196;28;940;-36
2022/04/05 11:25:04;;;;;;;;;;;21.20;48.00;;;;;;5072957;28;968;-36
2022/04/05 11:27:33;;;;;;;;;;;21.20;48.00;;;;;;5071773;28;1902;-36
2022/04/05 11:30:25;;;;;;;;;;;21.30;48.00;;;;;;5072364;28;991;-36
2022/04/05 11:33:08;;;;;;;;;;;21.30;47.90;;;;;;5029337;28;980;-37
2022/04/05 11:35:35;;;;;;;;;;;21.20;47.90;;;;;;5044506;28;1306;-37
2022/04/05 11:38:03;;;;;;;;;;;21.20;48.00;;;;;;5053688;28;880;-36
2022/04/05 11:40:30;;;;;;;;;;;21.20;48.10;;;;;;5074741;28;993;-36
2022/04/05 11:42:59;;;;;;;;;;;21.20;48.00;;;;;;5075772;28;989;-35
2022/04/05 11:45:26;;;;;;;;;;;21.20;48.00;;;;;;5077301;28;1428;-36
2022/04/05 11:47:53;;;;;;;;;;;21.30;47.90;;;;;;5076525;28;1906;-36
2022/04/05 11:50:20;;;;;;;;;;;21.30;48.10;;;;;;5077213;28;999;-36
2022/04/05 11:52:47;;;;;;;;;;;21.30;48.50;;;;;;5076420;28;927;-36
2022/04/05 11:58:03;;;;;;;;;;;21.30;48.40;;;;;;5075651;28;617;-36
2022/04/05 12:00:30;;;;;;;;;;;21.30;48.70;;;;;;5077216;28;951;-36
2022/04/05 12:03:02;;;;;;;;;;;21.30;48.50;;;;;;5075617;28;927;-35
2022/04/05 12:05:40;;;;;;;;;;;21.40;48.30;;;;;;5076423;28;949;-36
2022/04/05 12:08:09;;;;;;;;;;;21.30;48.50;;;;;;5076716;28;1910;-36
2022/04/05 12:10:36;;;;;;;;;;;21.30;48.40;;;;;;5076892;28;1004;-36
2022/04/05 12:13:04;;;;;;;;;;;21.40;48.50;;;;;;5075697;28;892;-36
2022/04/05 12:15:32;;;;;;;;;;;21.30;48.40;;;;;;5075313;28;1027;-36
2022/04/05 12:18:14;;;;;;;;;;;21.40;48.40;;;;;;5076317;28;948;-36
2022/04/05 12:20:41;;;;;;;;;;;21.30;48.50;;;;;;5076804;28;953;-35
2022/04/05 12:23:19;;;;;;;;;;;21.30;48.60;;;;;;5076303;28;976;-36
2022/04/05 12:26:00;;;;;;;;;;;21.30;48.50;;;;;;5078334;28;967;-35
2022/04/05 12:28:28;;;;;;;;;;;21.30;48.60;;;;;;5076467;28;1886;-36
2022/04/05 12:31:03;;;;;;;;;;;21.30;48.70;;;;;;5075920;28;1039;-37
2022/04/05 12:33:30;;;;;;;;;;;21.30;48.60;;;;;;5077180;28;846;-36
2022/04/05 12:35:56;;;;;;;;;;;21.30;48.60;;;;;;5076176;28;1007;-36
2022/04/05 12:38:23;;;;;;;;;;;21.30;48.50;;;;;;5076374;28;1016;-37
2022/04/05 12:40:50;;;;;;;;;;;21.30;48.60;;;;;;5076487;28;1016;-36
2022/04/05 12:43:19;;;;;;;;;;;21.40;48.40;;;;;;5076719;28;1263;-37
2022/04/05 12:45:47;;;;;;;;;;;21.40;48.50;;;;;;5074688;28;948;-37
2022/04/05 12:48:15;;;;;;;;;;;21.40;48.50;;;;;;5076154;28;1909;-38
2022/04/05 12:50:43;;;;;;;;;;;21.40;48.50;;;;;;5075873;28;909;-37
2022/04/05 12:53:09;;;;;;;;;;;21.30;48.50;;;;;;5076153;28;1007;-37
2022/04/05 12:55:36;;;;;;;;;;;21.30;48.50;;;;;;5076356;28;885;-38
2022/04/05 12:58:03;;;;;;;;;;;21.30;48.50;;;;;;5077111;28;987;-37
2022/04/05 13:00:32;;;;;;;;;;;21.30;48.60;;;;;;5074575;28;1049;-38
2022/04/05 13:03:12;;;;;;;;;;;21.30;48.60;;;;;;5075430;28;952;-35
2022/04/05 13:08:33;;;;;;;;;;;21.30;48.80;;;;;;5073466;28;1964;-38
2022/04/05 13:11:00;;;;;;;;;;;21.30;48.60;;;;;;5077260;28;987;-37
2022/04/05 13:13:27;;;;;;;;;;;21.40;48.50;;;;;;5076534;28;1039;-38
2022/04/05 13:16:04;;;;;;;;;;;21.40;48.60;;;;;;5076819;28;995;-38
2022/04/05 13:18:34;;;;;;;;;;;21.40;48.80;;;;;;5077049;28;1009;-38
2022/04/05 13:21:01;;;;;;;;;;;21.40;48.80;;;;;;5076386;28;996;-38
2022/04/05 13:23:30;;;;;;;;;;;21.30;48.90;;;;;;5076783;28;1048;-38
2022/04/05 13:25:57;;;;;;;;;;;21.30;48.60;;;;;;5075863;28;1000;-38
2022/04/05 13:28:31;;;;;;;;;;;21.40;48.70;;;;;;5077579;28;1975;-39
2022/04/05 13:31:06;;;;;;;;;;;21.30;49.90;;;;;;5075103;28;980;-38
2022/04/05 13:33:34;;;;;;;;;;;21.30;48.80;;;;;;5075215;28;944;-37
2022/04/05 13:36:01;;;;;;;;;;;21.30;48.50;;;;;;5077595;28;889;-43
2022/04/05 13:38:28;;;;;;;;;;;21.30;48.40;;;;;;5076331;28;952;-37
2022/04/05 13:40:54;;;;;;;;;;;21.20;48.40;;;;;;5077284;28;889;-38
2022/04/05 13:43:22;;;;;;;;;;;21.20;48.50;;;;;;5076201;28;1058;-38
2022/04/05 13:45:49;;;;;;;;;;;21.20;48.50;;;;;;5076087;28;1016;-38
2022/04/05 13:48:17;;;;;;;;;;;21.20;48.40;;;;;;5076841;28;1898;-38
2022/04/05 13:50:45;;;;;;;;;;;21.20;48.50;;;;;;5075546;28;972;-38
2022/04/05 13:53:11;;;;;;;;;;;21.30;48.40;;;;;;5076438;28;940;-37
2022/04/05 13:55:38;;;;;;;;;;;21.20;48.40;;;;;;5076127;28;1004;-38
2022/04/05 13:58:05;;;;;;;;;;;21.20;48.40;;;;;;5076091;28;1359;-38
2022/04/05 14:00:32;;;;;;;;;;;21.20;48.80;;;;;;5073858;28;935;-38
2022/04/05 14:02:59;;;;;;;;;;;21.20;48.50;;;;;;5075453;28;1381;-38
2022/04/05 14:05:25;;;;;;;;;;;21.20;49.00;;;;;;5075053;28;992;-37
2022/04/05 14:07:53;;;;;;;;;;;21.30;49.10;;;;;;5075448;28;1995;-38
2022/04/05 14:10:20;;;;;;;;;;;21.20;49.20;;;;;;5076208;28;1759;-38
2022/04/05 14:12:46;;;;;;;;;;;21.30;49.00;;;;;;5076184;28;1022;-38
2022/04/05 14:15:13;;;;;;;;;;;21.30;49.00;;;;;;5076065;28;1012;-37
2022/04/05 14:17:41;;;;;;;;;;;21.30;48.90;;;;;;5075496;28;1156;-38
2022/04/05 14:20:08;;;;;;;;;;;21.40;49.00;;;;;;5075704;28;1415;-38
2022/04/05 14:22:35;;;;;;;;;;;21.30;49.10;;;;;;5076716;28;948;-37
2022/04/05 14:25:04;;;;;;;;;;;21.40;49.30;;;;;;5076330;28;1004;-36
2022/04/05 14:27:31;;;;;;;;;;;21.30;49.30;;;;;;5075795;28;973;-38
2022/04/05 14:29:58;;;;;;;;;;;21.30;49.30;;;;;;5075795;28;1980;-38
2022/04/05 14:32:25;;;;;;;;;;;21.30;49.30;;;;;;5075042;28;1020;-40
2022/04/05 14:34:51;;;;;;;;;;;21.40;49.20;;;;;;5076219;28;982;-37
2022/04/05 14:37:18;;;;;;;;;;;21.40;49.20;;;;;;5075781;28;1031;-37
2022/04/05 14:39:45;;;;;;;;;;;21.40;49.10;;;;;;5075280;28;989;-39
2022/04/05 14:42:13;;;;;;;;;;;21.40;49.10;;;;;;5075367;28;909;-39
2022/04/05 14:44:40;;;;;;;;;;;21.30;49.00;;;;;;5075724;28;1024;-38
2022/04/05 14:47:07;;;;;;;;;;;21.40;49.10;;;;;;5075656;28;999;-38
2022/04/05 14:49:34;;;;;;;;;;;21.30;49.00;;;;;;5074588;28;1981;-39